Time;durP1;ratioP1;P1;durP2;ratioP2;P2;SDS_P1;SDS_P2;PMS_P1;PMS_P2;Temp;Humidity;BMP_temperature;BMP_pressure;BME280_temperature;BME280_humidity;BME280_pressure;Samples;Min_cycle;Max_cycle;Signal;HPM_P1;HPM_P2
2022/10/27 00:00:44;;;;;;;49.83;29.63;;;;;;;;;;5139188;27;20236;-44
2022/10/27 00:03:30;;;;;;;50.72;28.30;;;;;;;;;;5138267;27;20665;-44
2022/10/27 00:06:02;;;;;;;46.65;27.55;;;;;;;;;;5139399;27;20197;-44
2022/10/27 00:08:30;;;;;;;49.25;27.20;;;;;;;;;;5139235;27;20200;-44
2022/10/27 00:10:58;;;;;;;56.55;31.10;;;;;;;;;;5138783;27;20201;-44
2022/10/27 00:13:26;;;;;;;45.92;27.05;;;;;;;;;;5138751;27;20205;-44
2022/10/27 00:16:04;;;;;;;51.72;28.13;;;;;;;;;;5138982;27;20201;-44
2022/10/27 00:18:32;;;;;;;50.65;27.92;;;;;;;;;;5139221;27;20529;-44
2022/10/27 00:21:20;;;;;;;44.78;27.00;;;;;;;;;;5139064;27;20214;-44
2022/10/27 00:23:49;;;;;;;49.00;27.85;;;;;;;;;;5138727;27;20182;-44
2022/10/27 00:26:18;;;;;;;48.67;28.83;;;;;;;;;;5139219;27;20197;-44
2022/10/27 00:28:45;;;;;;;52.40;29.45;;;;;;;;;;5138876;27;20254;-44
2022/10/27 00:31:17;;;;;;;58.28;32.75;;;;;;;;;;5138550;27;20212;-44
2022/10/27 00:33:46;;;;;;;56.63;31.33;;;;;;;;;;5138797;27;20283;-44
2022/10/27 00:36:18;;;;;;;61.28;33.60;;;;;;;;;;5138525;27;20209;-44
2022/10/27 00:38:46;;;;;;;55.20;31.65;;;;;;;;;;5138580;27;20193;-44
2022/10/27 00:41:24;;;;;;;48.55;29.85;;;;;;;;;;5138490;27;20564;-44
2022/10/27 00:43:51;;;;;;;58.58;33.88;;;;;;;;;;5138597;27;20201;-44
2022/10/27 00:46:36;;;;;;;69.22;36.70;;;;;;;;;;5138082;27;20197;-44
2022/10/27 00:49:15;;;;;;;62.13;36.72;;;;;;;;;;5137530;27;20220;-44
2022/10/27 00:51:47;;;;;;;67.80;34.33;;;;;;;;;;5138373;27;20602;-44
2022/10/27 00:54:16;;;;;;;62.10;34.42;;;;;;;;;;5138141;27;20205;-44
2022/10/27 00:56:46;;;;;;;61.55;37.80;;;;;;;;;;5138301;27;20189;-44
2022/10/27 00:59:14;;;;;;;69.32;40.50;;;;;;;;;;5137164;27;20238;-44
2022/10/27 01:01:41;;;;;;;126.80;55.22;;;;;;;;;;5138460;27;20222;-44
2022/10/27 01:04:08;;;;;;;96.18;46.38;;;;;;;;;;5137727;27;20673;-44
2022/10/27 01:06:35;;;;;;;97.57;47.85;;;;;;;;;;5137136;27;20204;-44
2022/10/27 01:09:04;;;;;;;97.75;46.67;;;;;;;;;;5138043;27;20201;-44
2022/10/27 01:11:31;;;;;;;126.80;54.28;;;;;;;;;;5136970;27;20228;-44
2022/10/27 01:13:58;;;;;;;119.57;54.88;;;;;;;;;;5137590;27;20239;-44
2022/10/27 01:16:34;;;;;;;71.93;40.80;;;;;;;;;;5137807;27;20193;-44
2022/10/27 01:19:32;;;;;;;69.22;36.97;;;;;;;;;;5137784;27;20204;-44
2022/10/27 01:22:08;;;;;;;65.82;36.53;;;;;;;;;;5138248;27;20622;-44
2022/10/27 01:24:53;;;;;;;62.97;35.75;;;;;;;;;;5138436;27;20190;-44
2022/10/27 01:27:39;;;;;;;66.95;35.17;;;;;;;;;;5137632;27;20292;-44
2022/10/27 01:30:08;;;;;;;69.70;41.10;;;;;;;;;;5137701;27;20235;-44
2022/10/27 01:32:47;;;;;;;73.65;39.40;;;;;;;;;;5136513;27;20205;-44
2022/10/27 01:35:30;;;;;;;64.85;35.92;;;;;;;;;;5137311;27;20269;-44
2022/10/27 01:38:09;;;;;;;59.92;34.58;;;;;;;;;;5137856;27;20202;-44
2022/10/27 01:40:45;;;;;;;69.20;35.63;;;;;;;;;;5137579;27;20200;-44
2022/10/27 01:43:17;;;;;;;62.17;35.38;;;;;;;;;;5135579;27;20215;-44
2022/10/27 01:45:45;;;;;;;62.55;35.63;;;;;;;;;;5136726;27;20209;-44
2022/10/27 01:48:12;;;;;;;64.80;35.80;;;;;;;;;;5119497;27;20231;-45
2022/10/27 01:50:41;;;;;;;62.85;35.63;;;;;;;;;;5136227;27;20197;-44
2022/10/27 01:53:29;;;;;;;61.33;35.60;;;;;;;;;;5137028;27;20201;-44
2022/10/27 01:56:24;;;;;;;63.72;34.25;;;;;;;;;;5136984;27;20271;-44
2022/10/27 01:59:13;;;;;;;64.03;34.50;;;;;;;;;;5136071;27;20240;-43
2022/10/27 02:01:53;;;;;;;58.55;33.78;;;;;;;;;;5137060;27;20349;-44
2022/10/27 02:04:35;;;;;;;61.03;34.30;;;;;;;;;;5136934;27;20222;-44
2022/10/27 02:07:08;;;;;;;60.45;34.72;;;;;;;;;;5137015;27;20208;-44
2022/10/27 02:09:58;;;;;;;60.08;33.97;;;;;;;;;;5136512;27;20215;-44
2022/10/27 02:12:33;;;;;;;61.58;33.70;;;;;;;;;;5136412;27;20657;-44
2022/10/27 02:15:03;;;;;;;61.50;34.95;;;;;;;;;;5136891;27;20225;-44
2022/10/27 02:17:35;;;;;;;58.47;32.42;;;;;;;;;;5135509;27;20201;-44
2022/10/27 02:20:07;;;;;;;63.35;33.88;;;;;;;;;;5136925;27;20186;-44
2022/10/27 02:22:35;;;;;;;57.38;33.50;;;;;;;;;;5136383;27;20217;-44
2022/10/27 02:25:02;;;;;;;72.93;36.45;;;;;;;;;;5136520;27;20258;-44
2022/10/27 02:27:35;;;;;;;92.85;45.47;;;;;;;;;;5136256;27;20197;-44
2022/10/27 02:30:03;;;;;;;60.20;33.28;;;;;;;;;;5135712;27;20212;-44
2022/10/27 02:32:31;;;;;;;55.13;30.88;;;;;;;;;;5136292;27;20260;-44
2022/10/27 02:34:59;;;;;;;62.28;35.03;;;;;;;;;;5135419;27;20258;-44
2022/10/27 02:37:32;;;;;;;71.50;36.78;;;;;;;;;;5135242;27;20532;-44
2022/10/27 02:39:59;;;;;;;75.18;38.83;;;;;;;;;;5136927;27;20201;-44
2022/10/27 02:42:26;;;;;;;72.95;38.33;;;;;;;;;;5135778;27;20225;-44
2022/10/27 02:44:53;;;;;;;73.50;38.67;;;;;;;;;;5135835;27;20204;-44
2022/10/27 02:47:20;;;;;;;68.45;36.95;;;;;;;;;;5136293;27;20266;-44
2022/10/27 02:49:47;;;;;;;72.88;37.72;;;;;;;;;;5136088;27;20201;-44
2022/10/27 02:52:14;;;;;;;73.13;37.60;;;;;;;;;;5136683;27;20208;-46
2022/10/27 02:54:46;;;;;;;80.93;38.40;;;;;;;;;;5135084;27;20197;-45
2022/10/27 02:57:15;;;;;;;81.25;43.38;;;;;;;;;;5135944;27;20629;-44
2022/10/27 02:59:42;;;;;;;91.60;44.13;;;;;;;;;;5135859;27;20285;-44
2022/10/27 03:02:10;;;;;;;89.82;43.55;;;;;;;;;;5136030;27;20225;-44
2022/10/27 03:04:37;;;;;;;75.25;39.85;;;;;;;;;;5135141;28;20204;-44
2022/10/27 03:07:05;;;;;;;81.35;42.17;;;;;;;;;;5136548;27;20216;-44
2022/10/27 03:09:31;;;;;;;85.38;40.88;;;;;;;;;;5135756;27;20688;-45
2022/10/27 03:11:59;;;;;;;91.50;45.97;;;;;;;;;;5135257;28;20216;-44
2022/10/27 03:14:25;;;;;;;90.90;43.97;;;;;;;;;;5135784;27;20227;-45
2022/10/27 03:16:53;;;;;;;76.07;38.45;;;;;;;;;;5135736;27;20201;-44
2022/10/27 03:19:20;;;;;;;62.25;36.72;;;;;;;;;;5135842;27;20234;-44
2022/10/27 03:21:47;;;;;;;62.92;34.72;;;;;;;;;;5136139;27;20297;-44
2022/10/27 03:24:14;;;;;;;66.22;34.70;;;;;;;;;;5135922;27;20236;-44
2022/10/27 03:26:41;;;;;;;67.40;33.40;;;;;;;;;;5129390;27;20209;-44
2022/10/27 03:29:08;;;;;;;58.75;32.33;;;;;;;;;;5124174;28;20352;-46
2022/10/27 03:31:35;;;;;;;54.38;31.85;;;;;;;;;;5122936;28;20208;-44
2022/10/27 03:34:02;;;;;;;53.25;31.77;;;;;;;;;;5130444;28;20633;-45
2022/10/27 03:36:29;;;;;;;54.25;30.50;;;;;;;;;;5128965;28;20204;-44
2022/10/27 03:38:56;;;;;;;56.35;31.50;;;;;;;;;;5129975;28;20291;-45
2022/10/27 03:41:23;;;;;;;58.67;32.70;;;;;;;;;;5122757;27;20230;-44
2022/10/27 03:43:50;;;;;;;52.47;30.95;;;;;;;;;;5132852;27;20181;-44
2022/10/27 03:46:17;;;;;;;56.05;30.60;;;;;;;;;;5130408;27;20205;-45
2022/10/27 03:48:44;;;;;;;55.83;32.83;;;;;;;;;;5131574;27;20213;-46
2022/10/27 03:51:11;;;;;;;54.85;32.35;;;;;;;;;;5135642;27;20205;-44
2022/10/27 03:53:38;;;;;;;57.40;31.48;;;;;;;;;;5135246;27;20209;-44
2022/10/27 03:56:06;;;;;;;48.10;28.08;;;;;;;;;;5135325;27;20269;-44
2022/10/27 03:58:33;;;;;;;47.08;28.65;;;;;;;;;;5134931;27;20266;-43
2022/10/27 04:01:02;;;;;;;48.22;28.15;;;;;;;;;;5134549;28;20220;-45
2022/10/27 04:03:29;;;;;;;48.25;27.70;;;;;;;;;;5135362;27;20220;-44
2022/10/27 04:05:56;;;;;;;49.25;27.58;;;;;;;;;;5127859;27;20202;-44
2022/10/27 04:08:23;;;;;;;75.82;25.13;;;;;;;;;;5117696;28;20233;-46
2022/10/27 04:10:50;;;;;;;34.30;22.83;;;;;;;;;;5147735;27;20265;-42
2022/10/27 04:13:17;;;;;;;40.30;23.73;;;;;;;;;;5138678;27;20539;-44
2022/10/27 04:15:44;;;;;;;36.60;23.38;;;;;;;;;;5158916;27;20581;-44
2022/10/27 04:18:11;;;;;;;42.42;26.13;;;;;;;;;;5141542;27;20562;-44
2022/10/27 04:20:39;;;;;;;50.40;27.30;;;;;;;;;;5133006;27;20674;-44
2022/10/27 04:23:05;;;;;;;49.78;26.35;;;;;;;;;;5144711;27;20324;-44
2022/10/27 04:25:32;;;;;;;51.20;27.63;;;;;;;;;;5137897;27;20700;-44
2022/10/27 04:28:01;;;;;;;51.97;28.48;;;;;;;;;;5136789;27;20252;-44
2022/10/27 04:30:29;;;;;;;50.92;27.58;;;;;;;;;;5137817;27;20221;-44
2022/10/27 04:32:55;;;;;;;96.35;41.30;;;;;;;;;;5137289;27;20225;-44
2022/10/27 04:35:23;;;;;;;78.10;36.42;;;;;;;;;;5137377;27;20242;-45
2022/10/27 04:37:50;;;;;;;133.13;51.85;;;;;;;;;;5136065;27;20217;-47
2022/10/27 04:40:18;;;;;;;54.80;29.60;;;;;;;;;;5131865;27;20560;-44
2022/10/27 04:42:48;;;;;;;42.58;25.40;;;;;;;;;;5136315;27;20248;-44
2022/10/27 04:45:15;;;;;;;39.70;24.00;;;;;;;;;;5136352;27;20570;-45
2022/10/27 04:47:42;;;;;;;35.58;23.05;;;;;;;;;;5135652;27;20251;-47
2022/10/27 04:50:10;;;;;;;40.75;24.00;;;;;;;;;;5133626;27;20213;-45
2022/10/27 04:52:37;;;;;;;35.65;21.15;;;;;;;;;;5132394;27;20529;-44
2022/10/27 04:55:09;;;;;;;35.55;22.77;;;;;;;;;;5135480;27;20217;-45
2022/10/27 04:57:36;;;;;;;35.92;21.38;;;;;;;;;;5134669;27;20221;-44
2022/10/27 05:00:04;;;;;;;34.85;21.25;;;;;;;;;;5137097;27;20235;-43
2022/10/27 05:02:31;;;;;;;28.60;17.80;;;;;;;;;;5135367;27;20749;-43
2022/10/27 05:05:05;;;;;;;29.95;18.08;;;;;;;;;;5137074;27;20525;-43
2022/10/27 05:07:32;;;;;;;27.98;16.98;;;;;;;;;;5135702;27;20258;-44
2022/10/27 05:09:59;;;;;;;33.42;20.52;;;;;;;;;;5135935;27;20193;-43
2022/10/27 05:12:26;;;;;;;38.03;21.42;;;;;;;;;;5137471;27;20276;-43
2022/10/27 05:14:53;;;;;;;34.45;22.63;;;;;;;;;;5136400;27;20262;-44
2022/10/27 05:17:20;;;;;;;64.40;33.67;;;;;;;;;;5137280;27;20687;-43
2022/10/27 05:19:48;;;;;;;73.28;40.58;;;;;;;;;;5136349;27;20202;-46
2022/10/27 05:22:15;;;;;;;58.00;33.38;;;;;;;;;;5137246;27;20224;-44
2022/10/27 05:24:42;;;;;;;39.00;24.90;;;;;;;;;;5136600;27;20202;-43
2022/10/27 05:27:09;;;;;;;50.97;30.10;;;;;;;;;;5137254;27;20193;-44
2022/10/27 05:29:36;;;;;;;51.40;30.25;;;;;;;;;;5137195;27;20605;-43
2022/10/27 05:32:03;;;;;;;43.28;28.25;;;;;;;;;;5136318;27;20220;-44
2022/10/27 05:34:30;;;;;;;37.95;25.25;;;;;;;;;;5136943;27;20205;-44
2022/10/27 05:36:57;;;;;;;43.78;24.77;;;;;;;;;;5137305;27;20254;-44
2022/10/27 05:39:25;;;;;;;44.72;23.92;;;;;;;;;;5137127;27;20206;-43
2022/10/27 05:41:52;;;;;;;38.22;24.45;;;;;;;;;;5136931;27;20201;-43
2022/10/27 05:44:19;;;;;;;38.58;24.23;;;;;;;;;;5136106;27;20522;-43
2022/10/27 05:46:46;;;;;;;38.63;24.27;;;;;;;;;;5137242;27;20281;-47
2022/10/27 05:49:13;;;;;;;35.70;23.42;;;;;;;;;;5136435;27;20201;-44
2022/10/27 05:51:39;;;;;;;47.45;27.80;;;;;;;;;;5136151;27;20221;-43
2022/10/27 05:54:07;;;;;;;37.55;24.10;;;;;;;;;;5136806;27;20215;-43
2022/10/27 05:56:34;;;;;;;37.20;23.63;;;;;;;;;;5137143;27;20197;-43
2022/10/27 05:59:01;;;;;;;35.88;22.65;;;;;;;;;;5136691;27;20225;-43
2022/10/27 06:01:33;;;;;;;36.33;22.77;;;;;;;;;;5136964;27;20197;-43
2022/10/27 06:04:00;;;;;;;32.92;22.08;;;;;;;;;;5136856;27;20221;-43
2022/10/27 06:06:27;;;;;;;37.22;23.83;;;;;;;;;;5136795;27;20201;-43
2022/10/27 06:08:54;;;;;;;37.40;24.65;;;;;;;;;;5136595;27;20185;-43
2022/10/27 06:11:21;;;;;;;40.03;24.67;;;;;;;;;;5136739;27;20197;-44
2022/10/27 06:13:50;;;;;;;37.28;23.52;;;;;;;;;;5136674;27;20193;-43
2022/10/27 06:16:21;;;;;;;43.00;27.65;;;;;;;;;;5136734;27;20679;-43
2022/10/27 06:18:48;;;;;;;43.15;26.92;;;;;;;;;;5136415;27;20186;-43
2022/10/27 06:21:15;;;;;;;36.53;25.25;;;;;;;;;;5136132;27;20202;-44
2022/10/27 06:23:42;;;;;;;34.30;23.65;;;;;;;;;;5136371;27;20562;-43
2022/10/27 06:26:10;;;;;;;32.95;23.30;;;;;;;;;;5137438;27;20272;-43
2022/10/27 06:28:37;;;;;;;36.20;24.30;;;;;;;;;;5135937;27;20544;-43
2022/10/27 06:31:04;;;;;;;39.55;26.10;;;;;;;;;;5136138;27;20219;-43
2022/10/27 06:33:31;;;;;;;40.50;24.90;;;;;;;;;;5136026;27;20262;-44
2022/10/27 06:35:58;;;;;;;39.15;26.20;;;;;;;;;;5136381;27;20201;-43
2022/10/27 06:38:25;;;;;;;45.47;27.00;;;;;;;;;;5136000;27;20193;-43
2022/10/27 06:40:53;;;;;;;41.75;27.55;;;;;;;;;;5136296;27;20193;-43
2022/10/27 06:43:20;;;;;;;40.53;27.33;;;;;;;;;;5135336;27;20235;-43
2022/10/27 06:45:47;;;;;;;41.10;27.65;;;;;;;;;;5136300;27;20197;-43
2022/10/27 06:48:15;;;;;;;40.65;27.70;;;;;;;;;;5136238;27;20234;-43
2022/10/27 06:50:41;;;;;;;45.22;28.15;;;;;;;;;;5136213;27;20254;-43
2022/10/27 06:53:09;;;;;;;47.03;29.48;;;;;;;;;;5135929;27;20296;-44
2022/10/27 06:55:36;;;;;;;45.00;30.45;;;;;;;;;;5135741;27;20212;-44
2022/10/27 06:58:03;;;;;;;46.15;29.23;;;;;;;;;;5135997;27;20212;-44
2022/10/27 07:00:30;;;;;;;50.38;30.40;;;;;;;;;;5136127;27;20229;-43
2022/10/27 07:02:57;;;;;;;46.10;29.08;;;;;;;;;;5135732;27;20675;-44
2022/10/27 07:05:24;;;;;;;43.63;28.42;;;;;;;;;;5135070;28;20200;-43
2022/10/27 07:07:52;;;;;;;43.55;28.73;;;;;;;;;;5135936;27;20270;-43
2022/10/27 07:10:20;;;;;;;45.95;30.08;;;;;;;;;;5135593;27;20209;-46
2022/10/27 07:12:52;;;;;;;45.92;29.23;;;;;;;;;;5136611;27;20205;-46
2022/10/27 07:15:20;;;;;;;51.60;29.27;;;;;;;;;;5135767;27;20222;-44
2022/10/27 07:17:47;;;;;;;45.20;29.50;;;;;;;;;;5135925;28;20532;-43
2022/10/27 07:20:14;;;;;;;49.38;30.70;;;;;;;;;;5135565;27;20204;-44
2022/10/27 07:22:41;;;;;;;53.78;33.78;;;;;;;;;;5117982;27;20209;-43
2022/10/27 07:25:08;;;;;;;54.83;34.90;;;;;;;;;;5135541;28;20542;-44
2022/10/27 07:27:36;;;;;;;63.50;36.50;;;;;;;;;;5135915;27;20189;-44
2022/10/27 07:30:03;;;;;;;61.10;37.20;;;;;;;;;;5135766;27;20216;-44
2022/10/27 07:32:30;;;;;;;58.05;37.30;;;;;;;;;;5135735;27;20205;-43
2022/10/27 07:34:57;;;;;;;60.70;37.08;;;;;;;;;;5135725;28;20298;-44
2022/10/27 07:37:24;;;;;;;55.88;36.80;;;;;;;;;;5134755;28;20198;-44
2022/10/27 07:39:51;;;;;;;55.53;35.63;;;;;;;;;;5134599;28;20254;-45
2022/10/27 07:42:18;;;;;;;57.28;36.90;;;;;;;;;;5137892;27;20193;-45
2022/10/27 07:44:45;;;;;;;54.40;35.42;;;;;;;;;;5138850;27;20221;-44
2022/10/27 07:47:12;;;;;;;58.78;34.80;;;;;;;;;;5139451;27;20200;-44
2022/10/27 07:49:39;;;;;;;57.58;36.03;;;;;;;;;;5139163;27;20651;-44
2022/10/27 07:52:06;;;;;;;60.70;36.25;;;;;;;;;;5139303;27;20603;-44
2022/10/27 07:54:34;;;;;;;57.17;35.88;;;;;;;;;;5139153;27;20201;-43
2022/10/27 07:57:01;;;;;;;55.40;35.83;;;;;;;;;;5139223;27;20227;-45
2022/10/27 07:59:28;;;;;;;57.67;35.75;;;;;;;;;;5139072;27;20241;-44
2022/10/27 08:01:55;;;;;;;57.35;36.50;;;;;;;;;;5139061;27;20197;-44
2022/10/27 08:04:22;;;;;;;55.38;34.22;;;;;;;;;;5139017;27;20273;-44
2022/10/27 08:06:50;;;;;;;52.95;34.20;;;;;;;;;;5139228;27;20216;-44
2022/10/27 08:09:17;;;;;;;53.78;35.25;;;;;;;;;;5138383;27;20198;-44
2022/10/27 08:11:46;;;;;;;54.97;33.35;;;;;;;;;;5139261;27;20197;-44
2022/10/27 08:14:13;;;;;;;48.50;31.67;;;;;;;;;;5138832;27;20548;-44
2022/10/27 08:16:40;;;;;;;54.88;33.60;;;;;;;;;;5139081;27;20197;-44
2022/10/27 08:19:07;;;;;;;46.22;31.25;;;;;;;;;;5138523;27;20408;-45
2022/10/27 08:21:34;;;;;;;47.38;30.25;;;;;;;;;;5138153;27;20193;-44
2022/10/27 08:24:00;;;;;;;50.90;31.13;;;;;;;;;;5138727;27;20282;-44
2022/10/27 08:26:28;;;;;;;42.92;29.70;;;;;;;;;;5138628;27;20198;-44
2022/10/27 08:28:55;;;;;;;45.45;29.42;;;;;;;;;;5137475;27;20622;-44
2022/10/27 08:31:23;;;;;;;45.20;30.33;;;;;;;;;;5138799;27;20507;-45
2022/10/27 08:33:50;;;;;;;45.47;29.95;;;;;;;;;;5138551;27;20204;-47
2022/10/27 08:36:17;;;;;;;44.05;29.45;;;;;;;;;;5138383;27;20219;-44
2022/10/27 08:38:44;;;;;;;44.42;29.35;;;;;;;;;;5138263;27;20213;-44
2022/10/27 08:41:22;;;;;;;42.67;28.77;;;;;;;;;;5138655;27;20193;-44
2022/10/27 08:44:11;;;;;;;46.40;30.10;;;;;;;;;;5138541;27;20212;-44
2022/10/27 08:46:55;;;;;;;43.67;30.23;;;;;;;;;;5137503;27;20204;-44
2022/10/27 08:49:39;;;;;;;43.42;30.52;;;;;;;;;;5136031;27;20198;-45
2022/10/27 08:52:30;;;;;;;45.22;30.23;;;;;;;;;;5137242;27;20189;-44
2022/10/27 08:55:02;;;;;;;43.95;30.48;;;;;;;;;;5137685;27;20242;-44
2022/10/27 08:57:32;;;;;;;43.15;29.90;;;;;;;;;;5137952;27;20201;-44
2022/10/27 09:00:08;;;;;;;45.47;30.35;;;;;;;;;;5138174;27;20229;-44
2022/10/27 09:02:51;;;;;;;47.58;31.63;;;;;;;;;;5137345;27;20213;-44
2022/10/27 09:05:31;;;;;;;50.65;32.85;;;;;;;;;;5137889;27;20193;-45
2022/10/27 09:08:14;;;;;;;46.60;31.17;;;;;;;;;;5138329;27;20262;-44
2022/10/27 09:10:46;;;;;;;43.03;30.08;;;;;;;;;;5137764;27;20254;-44
2022/10/27 09:13:23;;;;;;;48.22;31.77;;;;;;;;;;5137973;27;20193;-44
2022/10/27 09:15:53;;;;;;;43.22;28.85;;;;;;;;;;5137534;27;20636;-44
2022/10/27 09:18:28;;;;;;;43.25;30.30;;;;;;;;;;5120099;27;20209;-44
2022/10/27 09:20:56;;;;;;;47.08;32.45;;;;;;;;;;5115491;28;20210;-44
2022/10/27 09:23:36;;;;;;;49.10;31.58;;;;;;;;;;5115249;28;20253;-44
2022/10/27 09:26:03;;;;;;;45.20;31.85;;;;;;;;;;5082242;28;20296;-45
2022/10/27 09:28:35;;;;;;;46.08;31.05;;;;;;;;;;5098422;28;20255;-45
2022/10/27 09:31:03;;;;;;;48.45;31.23;;;;;;;;;;5098460;28;20588;-44
2022/10/27 09:33:33;;;;;;;47.30;31.90;;;;;;;;;;5114965;28;20267;-44
2022/10/27 09:36:10;;;;;;;44.35;31.25;;;;;;;;;;5098319;28;20292;-45
2022/10/27 09:38:37;;;;;;;43.63;31.45;;;;;;;;;;5115332;28;20567;-44
2022/10/27 09:41:06;;;;;;;44.72;31.17;;;;;;;;;;5098588;28;20205;-45
2022/10/27 09:43:33;;;;;;;49.70;35.13;;;;;;;;;;5098195;28;20561;-45
2022/10/27 09:46:16;;;;;;;49.30;31.80;;;;;;;;;;5115084;28;20259;-44
2022/10/27 09:48:51;;;;;;;44.55;31.45;;;;;;;;;;5099646;28;20251;-44
2022/10/27 09:51:22;;;;;;;46.80;32.60;;;;;;;;;;5104704;27;20201;-44
2022/10/27 09:53:51;;;;;;;44.10;30.80;;;;;;;;;;5136022;27;20215;-44
2022/10/27 09:56:24;;;;;;;49.15;32.30;;;;;;;;;;5137100;27;20197;-44
2022/10/27 09:59:03;;;;;;;46.13;32.28;;;;;;;;;;5136546;27;20701;-45
2022/10/27 10:01:42;;;;;;;46.78;33.35;;;;;;;;;;5136395;27;20193;-45
2022/10/27 10:04:22;;;;;;;46.40;31.55;;;;;;;;;;5136007;27;20212;-44
2022/10/27 10:06:54;;;;;;;48.55;34.00;;;;;;;;;;5137028;27;20201;-44
2022/10/27 10:09:23;;;;;;;49.58;32.17;;;;;;;;;;5135840;27;20197;-44
2022/10/27 10:11:50;;;;;;;46.40;33.00;;;;;;;;;;5137075;27;20193;-44
2022/10/27 10:14:22;;;;;;;50.33;31.80;;;;;;;;;;5136333;27;20216;-44
2022/10/27 10:16:51;;;;;;;41.88;31.45;;;;;;;;;;5135716;27;20197;-44
2022/10/27 10:19:21;;;;;;;46.88;32.33;;;;;;;;;;5136479;27;20256;-44
2022/10/27 10:21:48;;;;;;;45.72;31.35;;;;;;;;;;5135739;27;20197;-45
2022/10/27 10:24:17;;;;;;;45.78;32.55;;;;;;;;;;5136335;27;20306;-44
2022/10/27 10:26:46;;;;;;;46.05;32.20;;;;;;;;;;5118413;27;20201;-44
2022/10/27 10:29:30;;;;;;;44.53;32.00;;;;;;;;;;5135333;27;20197;-44
2022/10/27 10:32:12;;;;;;;49.40;33.45;;;;;;;;;;5118761;27;20258;-44
2022/10/27 10:34:42;;;;;;;43.17;31.48;;;;;;;;;;5135359;27;20208;-44
2022/10/27 10:37:29;;;;;;;45.15;31.67;;;;;;;;;;5102342;27;20243;-46
2022/10/27 10:40:13;;;;;;;46.05;30.42;;;;;;;;;;5136328;27;20212;-45
2022/10/27 10:42:45;;;;;;;45.40;32.85;;;;;;;;;;5136236;27;20236;-45
2022/10/27 10:45:21;;;;;;;45.15;31.92;;;;;;;;;;5135215;27;20634;-44
2022/10/27 10:47:56;;;;;;;45.45;31.30;;;;;;;;;;5136464;27;20593;-44
2022/10/27 10:50:23;;;;;;;38.13;28.95;;;;;;;;;;5136251;27;20189;-44
2022/10/27 10:52:55;;;;;;;39.25;28.95;;;;;;;;;;5118138;27;20254;-44
2022/10/27 10:55:34;;;;;;;42.58;28.15;;;;;;;;;;5135332;27;20191;-44
2022/10/27 10:58:01;;;;;;;37.25;27.08;;;;;;;;;;5135505;27;20246;-44
2022/10/27 11:00:28;;;;;;;37.85;27.10;;;;;;;;;;5135659;27;20262;-44
2022/10/27 11:03:05;;;;;;;34.13;26.08;;;;;;;;;;5135269;27;20185;-44
2022/10/27 11:05:34;;;;;;;40.88;28.70;;;;;;;;;;5134823;28;20221;-44
2022/10/27 11:08:02;;;;;;;41.17;26.77;;;;;;;;;;5136248;27;20204;-44
2022/10/27 11:10:32;;;;;;;35.40;25.27;;;;;;;;;;5134946;28;20227;-45
2022/10/27 11:13:17;;;;;;;37.00;24.70;;;;;;;;;;5136409;27;20212;-44
2022/10/27 11:15:53;;;;;;;35.00;24.40;;;;;;;;;;5136751;27;20201;-44
2022/10/27 11:18:35;;;;;;;33.40;23.38;;;;;;;;;;5140131;27;20215;-44
2022/10/27 11:21:13;;;;;;;32.35;24.50;;;;;;;;;;5140145;27;20204;-44
2022/10/27 11:23:57;;;;;;;34.35;24.15;;;;;;;;;;5139062;27;20185;-44
2022/10/27 11:26:30;;;;;;;30.42;24.05;;;;;;;;;;5140064;27;20510;-44
2022/10/27 11:29:31;;;;;;;30.63;23.15;;;;;;;;;;5139661;27;20181;-46
2022/10/27 11:32:11;;;;;;;31.35;23.55;;;;;;;;;;5139198;27;20575;-46
2022/10/27 11:34:57;;;;;;;32.15;22.50;;;;;;;;;;5138942;27;20197;-45
2022/10/27 11:37:27;;;;;;;31.63;20.92;;;;;;;;;;5140551;27;20190;-45
2022/10/27 11:40:22;;;;;;;27.75;19.95;;;;;;;;;;5138979;27;20629;-46
2022/10/27 11:42:57;;;;;;;31.25;19.73;;;;;;;;;;5138755;27;20589;-45
2022/10/27 11:45:48;;;;;;;25.83;19.50;;;;;;;;;;5138494;27;20259;-44
2022/10/27 11:48:28;;;;;;;26.27;19.77;;;;;;;;;;5140148;27;20197;-44
2022/10/27 11:51:08;;;;;;;29.58;22.48;;;;;;;;;;5138695;27;20211;-45
2022/10/27 11:53:35;;;;;;;28.75;20.73;;;;;;;;;;5121527;27;20197;-44
2022/10/27 11:56:10;;;;;;;29.65;21.92;;;;;;;;;;5137100;27;20194;-44
2022/10/27 11:59:04;;;;;;;28.42;21.30;;;;;;;;;;5136330;27;20181;-44
2022/10/27 12:01:56;;;;;;;29.23;21.67;;;;;;;;;;5138274;27;20584;-44
2022/10/27 12:04:46;;;;;;;33.17;20.58;;;;;;;;;;5138082;27;20229;-44
2022/10/27 12:07:31;;;;;;;30.35;20.60;;;;;;;;;;5137743;27;20197;-45
2022/10/27 12:10:26;;;;;;;27.25;20.48;;;;;;;;;;5139165;27;20178;-45
2022/10/27 12:12:58;;;;;;;26.55;19.75;;;;;;;;;;5137024;27;20197;-45
2022/10/27 12:15:43;;;;;;;28.83;18.65;;;;;;;;;;5139237;27;20184;-45
2022/10/27 12:18:42;;;;;;;23.25;17.58;;;;;;;;;;5138131;27;20536;-45
2022/10/27 12:21:19;;;;;;;26.63;19.77;;;;;;;;;;5138139;27;20178;-46
2022/10/27 12:23:55;;;;;;;27.17;18.55;;;;;;;;;;5155848;27;20199;-46
2022/10/27 12:26:45;;;;;;;26.80;18.75;;;;;;;;;;5158383;27;20233;-45
2022/10/27 12:29:14;;;;;;;23.20;17.15;;;;;;;;;;5157568;27;20586;-45
2022/10/27 12:31:46;;;;;;;24.10;15.98;;;;;;;;;;5129831;27;20241;-45
2022/10/27 12:34:14;;;;;;;26.02;16.63;;;;;;;;;;5136204;27;20306;-47
2022/10/27 12:37:00;;;;;;;28.55;17.92;;;;;;;;;;5136396;27;20312;-46
2022/10/27 12:39:33;;;;;;;22.85;13.93;;;;;;;;;;5117300;28;20218;-47
2022/10/27 12:42:15;;;;;;;20.00;16.15;;;;;;;;;;5132222;27;20229;-46
2022/10/27 12:44:57;;;;;;;21.27;16.42;;;;;;;;;;5136807;27;20228;-46
2022/10/27 12:47:38;;;;;;;24.70;17.45;;;;;;;;;;5136516;27;20214;-47
2022/10/27 12:50:15;;;;;;;20.17;15.32;;;;;;;;;;5135821;27;20940;-48
2022/10/27 12:52:52;;;;;;;25.85;16.67;;;;;;;;;;5142909;27;20220;-46
2022/10/27 12:55:39;;;;;;;28.58;16.20;;;;;;;;;;5157321;27;20232;-46
2022/10/27 12:58:30;;;;;;;22.00;15.52;;;;;;;;;;5156737;27;20220;-46
2022/10/27 13:01:09;;;;;;;19.67;14.30;;;;;;;;;;5143573;27;20221;-47
2022/10/27 13:04:15;;;;;;;19.15;13.65;;;;;;;;;;5156462;27;20232;-45
2022/10/27 13:06:48;;;;;;;22.70;16.25;;;;;;;;;;5157351;27;20238;-46
2022/10/27 13:09:38;;;;;;;22.85;15.20;;;;;;;;;;5156355;27;20223;-46
2022/10/27 13:12:23;;;;;;;24.50;17.42;;;;;;;;;;5115306;27;20216;-48
2022/10/27 13:15:15;;;;;;;22.08;15.93;;;;;;;;;;5156057;27;20213;-48
2022/10/27 13:17:52;;;;;;;19.67;14.23;;;;;;;;;;5156362;27;20219;-46
2022/10/27 13:20:38;;;;;;;20.42;14.32;;;;;;;;;;5157330;27;20277;-46
2022/10/27 13:23:17;;;;;;;19.75;14.70;;;;;;;;;;5156744;27;20294;-46
2022/10/27 13:25:59;;;;;;;23.00;14.30;;;;;;;;;;5156676;27;20680;-45
2022/10/27 13:28:36;;;;;;;22.27;13.77;;;;;;;;;;5156311;27;20251;-46
2022/10/27 13:31:11;;;;;;;18.63;12.93;;;;;;;;;;5156139;27;20215;-47
2022/10/27 13:33:41;;;;;;;19.33;13.25;;;;;;;;;;5157087;27;20223;-46
2022/10/27 13:36:21;;;;;;;25.33;13.23;;;;;;;;;;5146713;27;20209;-45
2022/10/27 13:38:49;;;;;;;21.52;14.23;;;;;;;;;;5135605;27;20209;-45
2022/10/27 13:41:54;;;;;;;21.35;13.57;;;;;;;;;;5136056;27;20685;-46
2022/10/27 13:44:31;;;;;;;24.30;14.70;;;;;;;;;;5135747;27;20225;-46
2022/10/27 13:47:04;;;;;;;25.50;14.10;;;;;;;;;;5153972;27;20243;-45
2022/10/27 13:49:40;;;;;;;21.45;13.82;;;;;;;;;;5157109;27;20244;-45
2022/10/27 13:52:14;;;;;;;20.38;13.32;;;;;;;;;;5156692;27;20299;-45
2022/10/27 13:54:57;;;;;;;20.50;13.98;;;;;;;;;;5156743;27;20287;-46
2022/10/27 13:57:42;;;;;;;21.73;13.27;;;;;;;;;;5156340;27;20549;-46
2022/10/27 14:00:10;;;;;;;23.25;14.82;;;;;;;;;;5133377;27;20243;-45
2022/10/27 14:02:48;;;;;;;22.65;14.02;;;;;;;;;;5133570;27;20224;-46
2022/10/27 14:05:25;;;;;;;19.20;13.55;;;;;;;;;;5078591;28;20233;-46
2022/10/27 14:07:52;;;;;;;19.88;12.65;;;;;;;;;;5095803;28;20216;-45
2022/10/27 14:10:20;;;;;;;20.25;13.45;;;;;;;;;;5112539;28;20566;-46
2022/10/27 14:12:48;;;;;;;21.92;12.73;;;;;;;;;;5094769;28;20222;-45
2022/10/27 14:15:27;;;;;;;19.30;12.48;;;;;;;;;;5111911;28;20225;-45
2022/10/27 14:17:55;;;;;;;23.25;13.88;;;;;;;;;;5096059;28;20545;-46
2022/10/27 14:20:30;;;;;;;23.55;13.40;;;;;;;;;;5113351;28;20415;-45
2022/10/27 14:23:05;;;;;;;22.52;14.88;;;;;;;;;;5095583;28;20251;-47
2022/10/27 14:25:32;;;;;;;18.77;12.88;;;;;;;;;;5096199;28;20560;-45
2022/10/27 14:28:13;;;;;;;18.70;14.15;;;;;;;;;;5112431;28;20228;-47
2022/10/27 14:30:45;;;;;;;19.92;13.95;;;;;;;;;;5119037;27;20217;-46
2022/10/27 14:33:22;;;;;;;20.17;13.70;;;;;;;;;;5135155;27;20229;-46
2022/10/27 14:36:06;;;;;;;20.95;14.02;;;;;;;;;;5135245;27;20691;-45
2022/10/27 14:38:33;;;;;;;21.35;13.35;;;;;;;;;;5132506;27;20209;-46
2022/10/27 14:41:00;;;;;;;20.13;13.63;;;;;;;;;;5133137;27;20224;-44
2022/10/27 14:43:27;;;;;;;21.05;13.35;;;;;;;;;;5132578;27;20221;-46
2022/10/27 14:45:59;;;;;;;23.85;13.50;;;;;;;;;;5142179;27;20224;-46